createdAt,value
2019-04-23T00:00:30.594Z,14.80
2019-04-23T00:03:05.537Z,15.10
2019-04-23T00:05:40.770Z,15.00
2019-04-23T00:08:09.588Z,15.00
2019-04-23T00:10:34.816Z,15.00
2019-04-23T00:13:04.365Z,15.00
2019-04-23T00:15:58.702Z,14.90
2019-04-23T00:18:32.270Z,15.00
2019-04-23T00:21:00.303Z,15.10
2019-04-23T00:23:25.778Z,15.20
2019-04-23T00:26:22.180Z,15.10
2019-04-23T00:31:06.436Z,14.90
2019-04-23T00:33:29.678Z,14.80
2019-04-23T00:36:02.624Z,14.70
2019-04-23T00:43:54.806Z,15.00
2019-04-23T00:46:06.590Z,15.00
2019-04-23T00:48:44.005Z,15.00
2019-04-23T00:51:09.958Z,15.20
2019-04-23T00:53:38.900Z,15.20
2019-04-23T00:56:32.457Z,15.10
2019-04-23T00:58:51.086Z,15.00
2019-04-23T01:01:18.564Z,14.80
2019-04-23T01:03:55.220Z,14.60
2019-04-23T01:06:24.170Z,14.50
2019-04-23T01:08:52.377Z,14.80
2019-04-23T01:14:11.353Z,14.80
2019-04-23T01:16:24.213Z,14.60
2019-04-23T01:19:20.573Z,14.60
2019-04-23T01:21:36.759Z,14.60
2019-04-23T01:24:26.980Z,14.60
2019-04-23T01:27:39.768Z,14.60
2019-04-23T01:30:08.140Z,14.60
2019-04-23T01:32:32.122Z,14.70
2019-04-23T01:37:36.753Z,14.30
2019-04-23T01:40:04.074Z,14.20
2019-04-23T01:42:40.508Z,14.20
2019-04-23T01:45:15.045Z,14.30
2019-04-23T01:47:43.117Z,14.30
2019-04-23T01:50:14.204Z,14.30
2019-04-23T01:52:45.540Z,14.10
2019-04-23T01:55:17.062Z,14.00
2019-04-23T01:57:47.123Z,14.10
2019-04-23T02:00:24.184Z,13.80
2019-04-23T02:02:49.944Z,13.70
2019-04-23T02:05:23.318Z,13.50
2019-04-23T02:07:50.471Z,13.50
2019-04-23T02:10:32.223Z,13.60
2019-04-23T02:12:55.818Z,13.60
2019-04-23T02:15:23.095Z,13.60
2019-04-23T02:18:00.429Z,13.50
2019-04-23T02:20:33.470Z,13.30
2019-04-23T02:23:14.874Z,13.20
2019-04-23T02:25:44.029Z,13.30
2019-04-23T02:28:11.897Z,13.40
2019-04-23T02:33:31.077Z,13.30
2019-04-23T02:35:55.694Z,12.90
2019-04-23T02:38:30.882Z,12.80
2019-04-23T02:41:26.768Z,12.90
2019-04-23T02:43:29.846Z,13.20
2019-04-23T02:51:10.740Z,13.30
2019-04-23T02:53:42.184Z,13.40
2019-04-23T02:56:21.522Z,13.30
2019-04-23T03:06:04.946Z,13.30
2019-04-23T03:08:41.622Z,13.10
2019-04-23T03:16:27.057Z,12.40
2019-04-23T03:19:07.005Z,12.10
2019-04-23T03:21:52.817Z,11.90
2019-04-23T03:29:25.692Z,11.70
2019-04-23T03:39:22.399Z,11.90
2019-04-23T03:44:24.506Z,12.20
2019-04-23T03:49:21.238Z,12.00
2019-04-23T03:59:37.303Z,12.70
2019-04-23T04:02:23.799Z,12.80
2019-04-23T04:09:47.733Z,12.60
2019-04-23T04:12:16.606Z,12.50
2019-04-23T04:14:46.710Z,12.60
2019-04-23T04:17:14.370Z,12.60
2019-04-23T04:19:41.782Z,12.60
2019-04-23T04:22:18.417Z,12.50
2019-04-23T04:24:40.376Z,12.20
2019-04-23T04:27:15.129Z,12.00
2019-04-23T04:30:01.158Z,11.80
2019-04-23T04:32:12.017Z,11.90
2019-04-23T04:35:12.890Z,11.90
2019-04-23T04:42:15.172Z,11.80
2019-04-23T04:45:00.037Z,12.00
2019-04-23T04:47:31.028Z,12.20
2019-04-23T04:52:44.643Z,12.50
2019-04-23T04:54:55.863Z,12.30
2019-04-23T05:02:39.152Z,12.70
2019-04-23T05:05:29.758Z,12.80
2019-04-23T05:07:38.178Z,12.80
2019-04-23T05:10:29.745Z,12.80
2019-04-23T05:12:36.505Z,13.00
2019-04-23T05:20:19.982Z,13.50
2019-04-23T05:23:00.432Z,13.60
2019-04-23T05:25:19.443Z,13.70
2019-04-23T05:28:05.959Z,13.90
2019-04-23T05:33:02.582Z,14.00
2019-04-23T05:38:08.770Z,13.90
2019-04-23T05:40:37.480Z,14.10
2019-04-23T05:42:58.084Z,14.10
2019-04-23T05:45:34.759Z,14.40
2019-04-23T05:50:55.978Z,14.50
2019-04-23T05:55:43.089Z,14.70
2019-04-23T05:58:16.545Z,14.70
2019-04-23T06:00:49.146Z,14.60
2019-04-23T06:03:16.615Z,14.60
2019-04-23T06:05:54.097Z,14.20
2019-04-23T06:08:25.780Z,14.20
2019-04-23T06:10:57.201Z,14.20
2019-04-23T06:13:26.121Z,14.20
2019-04-23T06:15:57.717Z,14.40
2019-04-23T06:18:33.226Z,14.40
2019-04-23T06:21:03.042Z,14.80
2019-04-23T06:23:36.575Z,15.10
2019-04-23T06:26:24.344Z,15.30
2019-04-23T06:28:33.637Z,15.30
2019-04-23T06:31:06.260Z,15.30
2019-04-23T06:38:46.189Z,15.10
2019-04-23T06:43:56.376Z,14.80
2019-04-23T06:46:11.897Z,14.80
2019-04-23T06:48:47.613Z,15.20
2019-04-23T06:51:23.988Z,15.70
2019-04-23T06:53:45.302Z,16.00
2019-04-23T06:56:26.375Z,15.90
2019-04-23T06:58:52.389Z,15.70
2019-04-23T07:01:20.810Z,15.50
2019-04-23T07:03:57.143Z,15.80
2019-04-23T07:06:48.110Z,16.10
2019-04-23T07:09:13.560Z,16.20
2019-04-23T07:11:43.812Z,16.00
2019-04-23T07:14:17.053Z,16.50
2019-04-23T07:16:51.264Z,16.50
2019-04-23T07:19:26.818Z,16.70
2019-04-23T07:22:04.795Z,16.60
2019-04-23T07:24:26.373Z,17.00
2019-04-23T07:26:46.594Z,16.80
2019-04-23T07:29:31.433Z,16.90
2019-04-23T07:31:58.975Z,17.20
2019-04-23T07:34:29.945Z,17.30
2019-04-23T07:37:00.152Z,17.50
2019-04-23T07:39:35.667Z,17.00
2019-04-23T07:47:35.856Z,16.70
2019-04-23T07:53:03.547Z,17.40
2019-04-23T07:55:45.865Z,17.40
2019-04-23T07:58:14.374Z,17.80
2019-04-23T08:00:41.413Z,17.70
2019-04-23T08:03:17.318Z,17.50
2019-04-23T08:05:49.048Z,17.50
2019-04-23T08:08:07.514Z,17.60
2019-04-23T08:10:56.898Z,17.70
2019-04-23T08:13:15.500Z,18.00
2019-04-23T08:18:23.275Z,18.20
2019-04-23T08:20:49.150Z,18.00
2019-04-23T08:23:24.519Z,18.30
2019-04-23T08:27:02.701Z,19.00
2019-04-23T08:29:06.212Z,19.90
2019-04-23T08:31:21.952Z,19.90
2019-04-23T08:33:57.514Z,19.60
2019-04-23T08:36:25.021Z,19.30
2019-04-23T08:38:51.096Z,19.90
2019-04-23T08:41:26.927Z,20.20
2019-04-23T08:44:16.793Z,19.70
2019-04-23T08:47:03.325Z,19.30
2019-04-23T08:50:34.038Z,19.50
2019-04-23T08:52:07.110Z,19.50
2019-04-23T08:57:21.172Z,19.70
2019-04-23T09:07:16.914Z,20.70
2019-04-23T09:12:16.802Z,21.10
2019-04-23T09:17:23.260Z,20.90
2019-04-23T09:20:07.146Z,21.00
2019-04-23T09:22:30.993Z,20.60
2019-04-23T09:24:55.509Z,20.80
2019-04-23T09:27:27.317Z,20.90
2019-04-23T09:32:29.928Z,21.50
2019-04-23T09:41:10.782Z,21.70
2019-04-23T09:43:31.497Z,21.70
2019-04-23T09:46:15.066Z,21.40
2019-04-23T09:48:48.560Z,21.80
2019-04-23T09:51:10.331Z,21.90
2019-04-23T09:53:47.181Z,21.70
2019-04-23T09:56:06.807Z,21.90
2019-04-23T09:58:49.941Z,22.40
2019-04-23T10:01:25.892Z,22.20
2019-04-23T10:03:43.561Z,21.80
2019-04-23T10:06:12.666Z,22.30
2019-04-23T10:08:42.035Z,22.10
2019-04-23T10:11:07.897Z,22.40
2019-04-23T10:13:40.443Z,22.20
2019-04-23T10:16:13.431Z,22.10
2019-04-23T10:18:41.608Z,22.20
2019-04-23T10:21:11.355Z,22.60
2019-04-23T10:23:41.297Z,23.00
2019-04-23T10:26:12.169Z,22.80
2019-04-23T10:28:44.252Z,23.00
2019-04-23T10:31:14.561Z,23.10
2019-04-23T10:33:44.343Z,23.30
2019-04-23T10:36:19.050Z,23.10
2019-04-23T10:38:51.339Z,23.40
2019-04-23T10:41:18.117Z,23.50
2019-04-23T10:43:52.364Z,23.70
2019-04-23T10:47:06.758Z,23.80
2019-04-23T10:49:48.969Z,24.40
2019-04-23T10:54:41.386Z,24.90
2019-04-23T10:57:11.259Z,25.00
2019-04-23T10:59:43.308Z,25.10
2019-04-23T11:07:28.641Z,26.20
2019-04-23T11:12:37.554Z,26.70
2019-04-23T11:15:13.509Z,27.50
2019-04-23T11:17:38.443Z,27.10
2019-04-23T11:20:14.925Z,26.70
2019-04-23T11:25:11.957Z,28.50
2019-04-23T11:30:19.618Z,27.90
2019-04-23T11:32:56.459Z,27.70
2019-04-23T11:40:15.762Z,26.60
2019-04-23T11:42:50.015Z,26.40
2019-04-23T11:51:21.923Z,25.30
2019-04-23T11:53:10.555Z,25.00
2019-04-23T11:55:44.950Z,25.10
2019-04-23T11:58:21.885Z,25.30
2019-04-23T12:01:04.612Z,25.00
2019-04-23T12:03:26.927Z,25.10
2019-04-23T12:06:19.077Z,25.10
2019-04-23T12:11:46.789Z,25.10
2019-04-23T12:14:22.045Z,25.50
2019-04-23T12:16:57.325Z,25.50
2019-04-23T12:22:02.267Z,25.60
2019-04-23T12:24:59.624Z,25.30
2019-04-23T12:27:00.783Z,25.20
2019-04-23T12:29:33.880Z,26.10
2019-04-23T12:32:35.613Z,26.10
2019-04-23T12:37:35.041Z,26.00
2019-04-23T12:40:11.528Z,26.40
2019-04-23T12:45:16.976Z,27.60
2019-04-23T12:47:53.569Z,27.30
2019-04-23T12:52:44.271Z,28.20
2019-04-23T12:55:19.628Z,27.80
2019-04-23T12:57:40.223Z,27.30
2019-04-23T13:00:18.039Z,27.40
2019-04-23T13:02:59.338Z,27.20
2019-04-23T13:05:14.612Z,27.10
2019-04-23T13:10:24.535Z,26.90
2019-04-23T13:15:22.760Z,26.20
2019-04-23T13:20:27.585Z,27.10
2019-04-23T13:23:19.222Z,28.40
2019-04-23T13:25:36.752Z,28.20
2019-04-23T13:28:06.467Z,27.50
2019-04-23T13:36:04.458Z,28.10
2019-04-23T13:38:23.598Z,28.00
2019-04-23T13:40:50.548Z,27.30
2019-04-23T13:43:19.417Z,27.80
2019-04-23T13:45:59.891Z,28.40
2019-04-23T13:48:17.998Z,28.30
2019-04-23T13:50:59.439Z,29.10
2019-04-23T13:55:56.689Z,29.00
2019-04-23T13:58:23.298Z,29.00
2019-04-23T14:01:18.372Z,29.50
2019-04-23T14:03:36.103Z,29.30
2019-04-23T14:06:08.514Z,28.80
2019-04-23T14:08:51.898Z,28.40
2019-04-23T14:13:45.531Z,27.40
2019-04-23T14:24:02.910Z,26.60
2019-04-23T14:26:29.670Z,26.20
2019-04-23T14:31:17.530Z,26.10
2019-04-23T14:33:52.665Z,26.80
2019-04-23T14:36:19.952Z,27.10
2019-04-23T14:38:51.953Z,26.40
2019-04-23T14:41:23.632Z,26.10
2019-04-23T14:48:56.958Z,24.80
2019-04-23T14:51:37.542Z,24.50
2019-04-23T14:54:08.932Z,24.40
2019-04-23T14:59:07.822Z,24.20
2019-04-23T15:04:03.254Z,24.20
2019-04-23T15:06:46.742Z,24.20
2019-04-23T15:09:24.278Z,24.30
2019-04-23T15:11:52.720Z,24.30
2019-04-23T15:14:10.121Z,24.00
2019-04-23T15:16:49.853Z,24.00
2019-04-23T15:19:55.435Z,24.10
2019-04-23T15:22:13.620Z,24.20
2019-04-23T15:24:54.625Z,24.40
2019-04-23T15:28:00.166Z,24.20
2019-04-23T15:29:38.699Z,24.00
2019-04-23T15:32:23.893Z,23.90
2019-04-23T15:34:57.430Z,24.10
2019-04-23T15:37:40.939Z,23.90
2019-04-23T15:42:26.697Z,23.70
2019-04-23T15:45:13.372Z,23.00
2019-04-23T15:47:31.864Z,22.90
2019-04-23T15:50:17.558Z,23.00
2019-04-23T15:52:39.430Z,23.10
2019-04-23T15:55:01.503Z,22.60
2019-04-23T15:57:54.389Z,22.30
2019-04-23T16:02:08.935Z,22.40
2019-04-23T16:04:39.891Z,22.60
2019-04-23T16:07:11.687Z,22.70
2019-04-23T16:18:30.028Z,22.20
2019-04-23T16:21:04.929Z,22.00
2019-04-23T16:23:26.406Z,22.00
2019-04-23T16:25:58.449Z,21.70
2019-04-23T16:28:52.131Z,21.80
2019-04-23T16:31:08.072Z,21.90
2019-04-23T16:33:46.017Z,21.80
2019-04-23T16:36:11.222Z,21.90
2019-04-23T16:38:45.663Z,21.70
2019-04-23T16:41:20.062Z,21.40
2019-04-23T16:43:54.937Z,21.40
2019-04-23T16:46:17.830Z,21.10
2019-04-23T16:49:02.980Z,20.90
2019-04-23T16:53:44.793Z,20.70
2019-04-23T16:56:37.568Z,20.40
2019-04-23T16:58:59.435Z,20.20
2019-04-23T17:01:20.730Z,19.90
2019-04-23T17:04:01.249Z,19.80
2019-04-23T17:08:57.899Z,19.70
2019-04-23T17:11:31.731Z,19.80
2019-04-23T17:16:33.877Z,19.60
2019-04-23T17:19:13.293Z,19.60
2019-04-23T17:24:15.093Z,19.40
2019-04-23T17:26:39.357Z,19.50
2019-04-23T17:34:23.563Z,19.30
2019-04-23T17:36:45.847Z,19.20
2019-04-23T17:39:36.745Z,19.10
2019-04-23T17:47:30.098Z,18.70
2019-04-23T17:50:07.126Z,18.60
2019-04-23T17:52:29.506Z,18.50
2019-04-23T17:55:07.723Z,18.50
2019-04-23T17:57:29.688Z,18.50
2019-04-23T18:05:06.177Z,18.00
2019-04-23T18:10:18.035Z,17.90
2019-04-23T18:12:43.881Z,17.80
2019-04-23T18:15:13.062Z,17.70
2019-04-23T18:17:41.325Z,17.50
2019-04-23T18:20:33.640Z,17.40
2019-04-23T18:23:00.427Z,17.20
2019-04-23T18:25:30.770Z,17.10
2019-04-23T18:28:01.699Z,17.00
2019-04-23T18:30:44.626Z,17.10
2019-04-23T18:33:51.283Z,17.00
2019-04-23T18:35:44.076Z,17.00
2019-04-23T18:38:19.784Z,17.00
2019-04-23T18:45:54.074Z,17.20
2019-04-23T18:51:03.541Z,17.30
2019-04-23T18:58:48.558Z,17.20
2019-04-23T19:06:33.096Z,17.10
2019-04-23T19:09:36.592Z,17.20
2019-04-23T19:12:09.638Z,17.20
2019-04-23T19:17:35.844Z,17.10
2019-04-23T19:27:28.607Z,16.80
2019-04-23T19:29:45.446Z,16.80
2019-04-23T19:32:06.572Z,16.80
2019-04-23T19:34:46.906Z,16.70
2019-04-23T19:37:18.508Z,16.60
2019-04-23T19:39:46.951Z,16.60
2019-04-23T19:42:11.801Z,16.50
2019-04-23T19:47:25.628Z,16.30
2019-04-23T19:50:03.909Z,16.30
2019-04-23T19:52:20.386Z,16.30
2019-04-23T19:54:56.595Z,16.30
2019-04-23T19:57:42.618Z,16.20
2019-04-23T19:59:55.271Z,16.30
2019-04-23T20:02:44.508Z,16.20
2019-04-23T20:05:00.866Z,16.10
2019-04-23T20:07:43.190Z,16.00
2019-04-23T20:09:55.259Z,15.90
2019-04-23T20:12:32.114Z,16.00
2019-04-23T20:15:18.180Z,16.00
2019-04-23T20:17:51.557Z,15.80
2019-04-23T20:20:04.361Z,15.80
2019-04-23T20:22:51.973Z,15.90
2019-04-23T20:25:37.834Z,15.80
2019-04-23T20:30:54.049Z,15.70
2019-04-23T20:35:34.771Z,16.10
2019-04-23T20:43:05.772Z,16.40
2019-04-23T20:45:46.688Z,16.40
2019-04-23T20:48:20.006Z,16.40
2019-04-23T20:50:44.454Z,16.30
2019-04-23T20:53:13.616Z,16.30
2019-04-23T20:56:01.526Z,16.20
2019-04-23T20:58:36.570Z,15.90
2019-04-23T21:01:09.638Z,15.80
2019-04-23T21:06:06.365Z,16.00
2019-04-23T21:09:05.727Z,16.10
2019-04-23T21:11:08.698Z,16.20
2019-04-23T21:13:55.077Z,16.20
2019-04-23T21:23:50.678Z,15.80
2019-04-23T21:26:07.935Z,15.70
2019-04-23T21:31:30.546Z,15.40
2019-04-23T21:34:06.107Z,15.30
2019-04-23T21:36:43.104Z,15.20
2019-04-23T21:46:51.052Z,14.50
2019-04-23T21:51:53.804Z,13.90
2019-04-23T21:54:21.606Z,13.80
2019-04-23T21:59:17.562Z,13.60
2019-04-23T22:02:13.496Z,13.50
2019-04-23T22:04:34.233Z,13.30
2019-04-23T22:09:34.798Z,13.20
2019-04-23T22:12:19.572Z,13.20
2019-04-23T22:19:40.513Z,13.90
2019-04-23T22:22:00.824Z,14.00
2019-04-23T22:24:43.152Z,14.10
2019-04-23T22:27:10.152Z,14.00
2019-04-23T22:29:39.228Z,13.70
2019-04-23T22:32:13.089Z,13.50
2019-04-23T22:34:51.357Z,13.50
2019-04-23T22:37:15.548Z,13.30
2019-04-23T22:39:52.530Z,13.10
2019-04-23T22:42:36.323Z,13.00
2019-04-23T22:47:26.286Z,12.90
2019-04-23T22:50:00.768Z,13.00
2019-04-23T22:52:33.369Z,13.10
2019-04-23T22:55:02.031Z,13.20
2019-04-23T22:57:56.457Z,13.30
2019-04-23T23:00:14.667Z,13.30
2019-04-23T23:05:31.752Z,13.60
2019-04-23T23:07:56.228Z,13.80
2019-04-23T23:10:20.089Z,13.90
2019-04-23T23:15:26.627Z,13.60
2019-04-23T23:23:05.557Z,13.20
2019-04-23T23:28:06.298Z,12.90
2019-04-23T23:30:38.854Z,12.80
2019-04-23T23:33:11.262Z,12.80
2019-04-23T23:35:38.847Z,12.80
2019-04-23T23:38:08.312Z,13.00
2019-04-23T23:43:23.440Z,13.10
2019-04-23T23:45:57.609Z,13.20
2019-04-23T23:48:13.081Z,13.30
2019-04-23T23:50:54.630Z,13.40
2019-04-23T23:53:23.301Z,13.50
2019-04-23T23:55:58.732Z,13.40
2019-04-23T23:58:23.166Z,13.30
